sensor_id;sensor_type;location;lat;lon;timestamp;temperature;humidity
7325;DHT22;3703;48.016;7.802;2022-10-10T00:00:05;12.50;99.90
7325;DHT22;3703;48.016;7.802;2022-10-10T00:02:53;12.50;99.90
7325;DHT22;3703;48.016;7.802;2022-10-10T00:05:41;12.60;99.90
7325;DHT22;3703;48.016;7.802;2022-10-10T00:08:29;12.50;99.90
7325;DHT22;3703;48.016;7.802;2022-10-10T00:11:19;12.50;99.90
7325;DHT22;3703;48.016;7.802;2022-10-10T00:14:10;12.50;99.90
7325;DHT22;3703;48.016;7.802;2022-10-10T00:16:57;12.60;99.90
7325;DHT22;3703;48.016;7.802;2022-10-10T00:19:45;12.70;99.90
7325;DHT22;3703;48.016;7.802;2022-10-10T00:22:33;12.70;99.90
7325;DHT22;3703;48.016;7.802;2022-10-10T00:25:20;12.70;99.90
7325;DHT22;3703;48.016;7.802;2022-10-10T00:28:08;12.70;99.90
7325;DHT22;3703;48.016;7.802;2022-10-10T00:30:57;12.70;99.90
7325;DHT22;3703;48.016;7.802;2022-10-10T00:33:44;12.70;99.90
7325;DHT22;3703;48.016;7.802;2022-10-10T00:36:32;12.70;99.90
7325;DHT22;3703;48.016;7.802;2022-10-10T00:39:20;13.30;99.90
7325;DHT22;3703;48.016;7.802;2022-10-10T00:42:10;12.60;99.90
7325;DHT22;3703;48.016;7.802;2022-10-10T00:45:21;12.70;99.90
7325;DHT22;3703;48.016;7.802;2022-10-10T00:48:18;12.80;99.90
7325;DHT22;3703;48.016;7.802;2022-10-10T00:51:08;12.80;99.90
7325;DHT22;3703;48.016;7.802;2022-10-10T00:54:00;12.80;99.90
7325;DHT22;3703;48.016;7.802;2022-10-10T00:56:50;12.70;99.90
7325;DHT22;3703;48.016;7.802;2022-10-10T00:59:41;12.70;99.90
7325;DHT22;3703;48.016;7.802;2022-10-10T01:02:31;12.80;99.90
7325;DHT22;3703;48.016;7.802;2022-10-10T01:05:20;12.70;99.90
7325;DHT22;3703;48.016;7.802;2022-10-10T01:08:09;12.70;99.90
7325;DHT22;3703;48.016;7.802;2022-10-10T01:11:06;12.60;99.90
7325;DHT22;3703;48.016;7.802;2022-10-10T01:14:08;12.60;99.90
7325;DHT22;3703;48.016;7.802;2022-10-10T01:17:09;12.40;99.90
7325;DHT22;3703;48.016;7.802;2022-10-10T01:20:36;12.50;99.90
7325;DHT22;3703;48.016;7.802;2022-10-10T01:23:50;12.60;99.90
7325;DHT22;3703;48.016;7.802;2022-10-10T01:27:17;12.60;99.90
7325;DHT22;3703;48.016;7.802;2022-10-10T01:30:13;12.70;99.90
7325;DHT22;3703;48.016;7.802;2022-10-10T01:33:07;12.70;99.90
7325;DHT22;3703;48.016;7.802;2022-10-10T01:36:02;12.60;99.90
7325;DHT22;3703;48.016;7.802;2022-10-10T01:38:55;12.50;99.90
7325;DHT22;3703;48.016;7.802;2022-10-10T01:41:49;12.50;99.90
7325;DHT22;3703;48.016;7.802;2022-10-10T01:44:43;12.60;99.90
7325;DHT22;3703;48.016;7.802;2022-10-10T01:47:32;12.60;99.90
7325;DHT22;3703;48.016;7.802;2022-10-10T01:50:21;12.50;99.90
7325;DHT22;3703;48.016;7.802;2022-10-10T01:53:16;12.50;99.90
7325;DHT22;3703;48.016;7.802;2022-10-10T01:56:10;11.80;99.90
7325;DHT22;3703;48.016;7.802;2022-10-10T01:59:09;12.60;99.90
7325;DHT22;3703;48.016;7.802;2022-10-10T02:02:07;12.60;99.90
7325;DHT22;3703;48.016;7.802;2022-10-10T02:05:05;12.60;99.90
7325;DHT22;3703;48.016;7.802;2022-10-10T02:08:03;12.60;99.90
7325;DHT22;3703;48.016;7.802;2022-10-10T02:10:58;12.70;99.90
7325;DHT22;3703;48.016;7.802;2022-10-10T02:13:48;12.60;99.90
7325;DHT22;3703;48.016;7.802;2022-10-10T02:16:43;12.70;99.90
7325;DHT22;3703;48.016;7.802;2022-10-10T02:19:33;12.70;99.90
7325;DHT22;3703;48.016;7.802;2022-10-10T02:22:23;12.70;99.90
7325;DHT22;3703;48.016;7.802;2022-10-10T02:25:12;12.70;99.90
7325;DHT22;3703;48.016;7.802;2022-10-10T02:28:06;12.60;99.90
7325;DHT22;3703;48.016;7.802;2022-10-10T02:31:04;12.70;99.90
7325;DHT22;3703;48.016;7.802;2022-10-10T02:33:56;12.70;99.90
7325;DHT22;3703;48.016;7.802;2022-10-10T02:36:48;12.50;99.90
7325;DHT22;3703;48.016;7.802;2022-10-10T02:39:41;12.60;99.90
7325;DHT22;3703;48.016;7.802;2022-10-10T02:42:31;12.60;99.90
7325;DHT22;3703;48.016;7.802;2022-10-10T02:45:20;12.60;99.90
7325;DHT22;3703;48.016;7.802;2022-10-10T02:48:08;12.70;99.90
7325;DHT22;3703;48.016;7.802;2022-10-10T02:50:56;12.70;99.90
7325;DHT22;3703;48.016;7.802;2022-10-10T02:53:44;12.70;99.90
7325;DHT22;3703;48.016;7.802;2022-10-10T02:56:33;12.70;99.90
7325;DHT22;3703;48.016;7.802;2022-10-10T02:59:20;12.70;99.90
7325;DHT22;3703;48.016;7.802;2022-10-10T03:02:08;12.70;99.90
7325;DHT22;3703;48.016;7.802;2022-10-10T03:04:56;12.80;99.90
7325;DHT22;3703;48.016;7.802;2022-10-10T03:07:44;12.80;99.90
7325;DHT22;3703;48.016;7.802;2022-10-10T03:10:31;12.90;99.90
7325;DHT22;3703;48.016;7.802;2022-10-10T03:13:21;12.80;99.90
7325;DHT22;3703;48.016;7.802;2022-10-10T03:16:08;12.90;99.90
7325;DHT22;3703;48.016;7.802;2022-10-10T03:18:56;12.90;99.90
7325;DHT22;3703;48.016;7.802;2022-10-10T03:21:44;12.80;99.90
7325;DHT22;3703;48.016;7.802;2022-10-10T03:24:31;12.90;99.90
7325;DHT22;3703;48.016;7.802;2022-10-10T03:27:19;12.80;99.90
7325;DHT22;3703;48.016;7.802;2022-10-10T03:30:09;12.80;99.90
7325;DHT22;3703;48.016;7.802;2022-10-10T03:32:57;12.80;99.90
7325;DHT22;3703;48.016;7.802;2022-10-10T03:35:45;12.80;99.90
7325;DHT22;3703;48.016;7.802;2022-10-10T03:38:33;12.80;99.90
7325;DHT22;3703;48.016;7.802;2022-10-10T03:41:21;12.80;99.90
7325;DHT22;3703;48.016;7.802;2022-10-10T03:44:08;12.80;99.90
7325;DHT22;3703;48.016;7.802;2022-10-10T03:46:57;12.90;99.90
7325;DHT22;3703;48.016;7.802;2022-10-10T03:49:45;12.80;99.90
7325;DHT22;3703;48.016;7.802;2022-10-10T03:52:33;12.80;99.90
7325;DHT22;3703;48.016;7.802;2022-10-10T03:55:20;12.80;99.90
7325;DHT22;3703;48.016;7.802;2022-10-10T03:58:08;12.80;99.90
7325;DHT22;3703;48.016;7.802;2022-10-10T04:00:58;12.80;99.90
7325;DHT22;3703;48.016;7.802;2022-10-10T04:03:50;12.80;99.90
7325;DHT22;3703;48.016;7.802;2022-10-10T04:06:38;12.80;99.90
7325;DHT22;3703;48.016;7.802;2022-10-10T04:09:26;12.70;99.90
7325;DHT22;3703;48.016;7.802;2022-10-10T04:12:14;12.70;99.90
7325;DHT22;3703;48.016;7.802;2022-10-10T04:15:02;12.70;99.90
7325;DHT22;3703;48.016;7.802;2022-10-10T04:17:50;12.70;99.90
7325;DHT22;3703;48.016;7.802;2022-10-10T04:20:39;12.80;99.90
7325;DHT22;3703;48.016;7.802;2022-10-10T04:23:26;13.60;99.90
7325;DHT22;3703;48.016;7.802;2022-10-10T04:26:14;12.60;99.90
7325;DHT22;3703;48.016;7.802;2022-10-10T04:29:02;12.70;99.90
7325;DHT22;3703;48.016;7.802;2022-10-10T04:31:50;12.70;99.90
7325;DHT22;3703;48.016;7.802;2022-10-10T04:34:37;12.80;99.90
7325;DHT22;3703;48.016;7.802;2022-10-10T04:37:26;12.80;99.90
7325;DHT22;3703;48.016;7.802;2022-10-10T04:40:14;12.70;99.90
7325;DHT22;3703;48.016;7.802;2022-10-10T04:43:02;12.70;99.90
7325;DHT22;3703;48.016;7.802;2022-10-10T04:45:50;12.60;99.90
7325;DHT22;3703;48.016;7.802;2022-10-10T04:48:38;12.60;99.90
7325;DHT22;3703;48.016;7.802;2022-10-10T04:51:25;12.60;99.90
7325;DHT22;3703;48.016;7.802;2022-10-10T04:54:14;12.60;99.90
7325;DHT22;3703;48.016;7.802;2022-10-10T04:57:02;12.60;99.90
7325;DHT22;3703;48.016;7.802;2022-10-10T04:59:50;12.70;99.90
7325;DHT22;3703;48.016;7.802;2022-10-10T05:02:38;12.70;99.90
7325;DHT22;3703;48.016;7.802;2022-10-10T05:05:25;12.70;99.90
7325;DHT22;3703;48.016;7.802;2022-10-10T05:08:13;12.70;99.90
7325;DHT22;3703;48.016;7.802;2022-10-10T05:11:02;12.80;99.90
7325;DHT22;3703;48.016;7.802;2022-10-10T05:13:50;12.70;99.90
7325;DHT22;3703;48.016;7.802;2022-10-10T05:16:37;12.80;99.90
7325;DHT22;3703;48.016;7.802;2022-10-10T05:19:25;12.80;99.90
7325;DHT22;3703;48.016;7.802;2022-10-10T05:22:13;12.90;99.90
7325;DHT22;3703;48.016;7.802;2022-10-10T05:25:01;13.70;99.90
7325;DHT22;3703;48.016;7.802;2022-10-10T05:27:50;12.90;99.90
7325;DHT22;3703;48.016;7.802;2022-10-10T05:30:37;13.00;99.90
7325;DHT22;3703;48.016;7.802;2022-10-10T05:33:25;13.00;99.90
7325;DHT22;3703;48.016;7.802;2022-10-10T05:36:14;13.00;99.90
7325;DHT22;3703;48.016;7.802;2022-10-10T05:39:02;12.80;99.90
7325;DHT22;3703;48.016;7.802;2022-10-10T05:41:50;13.00;99.90
7325;DHT22;3703;48.016;7.802;2022-10-10T05:44:39;13.00;99.90
7325;DHT22;3703;48.016;7.802;2022-10-10T05:47:27;13.00;99.90
7325;DHT22;3703;48.016;7.802;2022-10-10T05:50:24;13.00;99.90
7325;DHT22;3703;48.016;7.802;2022-10-10T05:53:16;13.00;99.90
7325;DHT22;3703;48.016;7.802;2022-10-10T05:56:05;13.00;99.90
7325;DHT22;3703;48.016;7.802;2022-10-10T05:58:53;13.10;99.90
7325;DHT22;3703;48.016;7.802;2022-10-10T06:01:42;13.10;99.90
7325;DHT22;3703;48.016;7.802;2022-10-10T06:04:30;13.00;99.90
7325;DHT22;3703;48.016;7.802;2022-10-10T06:07:18;12.90;99.90
7325;DHT22;3703;48.016;7.802;2022-10-10T06:10:06;12.80;99.90
7325;DHT22;3703;48.016;7.802;2022-10-10T06:12:55;13.00;99.90
7325;DHT22;3703;48.016;7.802;2022-10-10T06:15:42;13.00;99.90
7325;DHT22;3703;48.016;7.802;2022-10-10T06:18:32;13.10;99.90
7325;DHT22;3703;48.016;7.802;2022-10-10T06:21:19;13.10;99.90
7325;DHT22;3703;48.016;7.802;2022-10-10T06:24:07;13.10;99.90
7325;DHT22;3703;48.016;7.802;2022-10-10T06:26:55;13.10;99.90
7325;DHT22;3703;48.016;7.802;2022-10-10T06:29:43;13.00;99.90
7325;DHT22;3703;48.016;7.802;2022-10-10T06:32:31;12.90;99.90
7325;DHT22;3703;48.016;7.802;2022-10-10T06:35:20;12.90;99.90
7325;DHT22;3703;48.016;7.802;2022-10-10T06:38:08;13.00;99.90
7325;DHT22;3703;48.016;7.802;2022-10-10T06:41:00;13.00;99.90
7325;DHT22;3703;48.016;7.802;2022-10-10T06:43:48;13.10;99.90
7325;DHT22;3703;48.016;7.802;2022-10-10T06:46:36;13.20;99.90
7325;DHT22;3703;48.016;7.802;2022-10-10T06:49:24;13.00;99.90
7325;DHT22;3703;48.016;7.802;2022-10-10T06:52:13;13.00;99.90
7325;DHT22;3703;48.016;7.802;2022-10-10T06:55:01;13.00;99.90
7325;DHT22;3703;48.016;7.802;2022-10-10T06:57:48;13.00;99.90
7325;DHT22;3703;48.016;7.802;2022-10-10T07:00:36;13.00;99.90
7325;DHT22;3703;48.016;7.802;2022-10-10T07:03:24;13.00;99.90
7325;DHT22;3703;48.016;7.802;2022-10-10T07:06:14;13.20;99.90
7325;DHT22;3703;48.016;7.802;2022-10-10T07:09:04;13.30;99.90
7325;DHT22;3703;48.016;7.802;2022-10-10T07:11:52;13.30;99.90
7325;DHT22;3703;48.016;7.802;2022-10-10T07:14:40;13.40;99.90
7325;DHT22;3703;48.016;7.802;2022-10-10T07:17:27;13.50;99.90
7325;DHT22;3703;48.016;7.802;2022-10-10T07:20:16;13.50;99.90
7325;DHT22;3703;48.016;7.802;2022-10-10T07:23:04;13.40;99.90
7325;DHT22;3703;48.016;7.802;2022-10-10T07:25:58;13.50;99.90
7325;DHT22;3703;48.016;7.802;2022-10-10T07:28:47;13.70;99.90
7325;DHT22;3703;48.016;7.802;2022-10-10T07:31:35;13.80;99.90
7325;DHT22;3703;48.016;7.802;2022-10-10T07:34:23;14.00;99.90
7325;DHT22;3703;48.016;7.802;2022-10-10T07:37:10;14.10;99.90
7325;DHT22;3703;48.016;7.802;2022-10-10T07:39:58;14.30;99.90
7325;DHT22;3703;48.016;7.802;2022-10-10T07:42:47;14.40;99.90
7325;DHT22;3703;48.016;7.802;2022-10-10T07:45:35;14.50;99.90
7325;DHT22;3703;48.016;7.802;2022-10-10T07:48:23;14.60;99.90
7325;DHT22;3703;48.016;7.802;2022-10-10T07:51:11;14.80;99.90
7325;DHT22;3703;48.016;7.802;2022-10-10T07:54:00;14.90;99.90
7325;DHT22;3703;48.016;7.802;2022-10-10T07:56:48;15.00;99.90
7325;DHT22;3703;48.016;7.802;2022-10-10T07:59:37;15.30;99.90
7325;DHT22;3703;48.016;7.802;2022-10-10T08:02:25;15.50;99.90
7325;DHT22;3703;48.016;7.802;2022-10-10T08:05:13;15.80;99.90
7325;DHT22;3703;48.016;7.802;2022-10-10T08:08:00;16.00;99.90
7325;DHT22;3703;48.016;7.802;2022-10-10T08:10:48;16.10;99.90
7325;DHT22;3703;48.016;7.802;2022-10-10T08:13:36;16.30;99.90
7325;DHT22;3703;48.016;7.802;2022-10-10T08:16:26;16.40;99.90
7325;DHT22;3703;48.016;7.802;2022-10-10T08:19:14;16.70;99.90
7325;DHT22;3703;48.016;7.802;2022-10-10T08:22:02;17.00;99.90
7325;DHT22;3703;48.016;7.802;2022-10-10T08:24:50;17.20;99.90
7325;DHT22;3703;48.016;7.802;2022-10-10T08:27:38;17.40;99.90
7325;DHT22;3703;48.016;7.802;2022-10-10T08:30:26;17.60;99.90
7325;DHT22;3703;48.016;7.802;2022-10-10T08:33:15;17.70;99.90
7325;DHT22;3703;48.016;7.802;2022-10-10T08:36:04;17.90;99.90
7325;DHT22;3703;48.016;7.802;2022-10-10T08:38:54;18.40;99.90
7325;DHT22;3703;48.016;7.802;2022-10-10T08:41:48;18.30;99.90
7325;DHT22;3703;48.016;7.802;2022-10-10T08:44:40;18.40;99.90
7325;DHT22;3703;48.016;7.802;2022-10-10T08:47:35;18.50;99.90
7325;DHT22;3703;48.016;7.802;2022-10-10T08:50:28;18.60;99.90
7325;DHT22;3703;48.016;7.802;2022-10-10T08:53:21;18.80;99.90
7325;DHT22;3703;48.016;7.802;2022-10-10T08:56:15;19.00;99.90
7325;DHT22;3703;48.016;7.802;2022-10-10T08:59:10;19.20;99.90
7325;DHT22;3703;48.016;7.802;2022-10-10T09:02:26;19.50;99.90
7325;DHT22;3703;48.016;7.802;2022-10-10T09:05:19;19.90;99.90
7325;DHT22;3703;48.016;7.802;2022-10-10T09:08:27;20.40;99.90
7325;DHT22;3703;48.016;7.802;2022-10-10T09:11:30;20.30;99.90
7325;DHT22;3703;48.016;7.802;2022-10-10T09:14:34;20.60;99.90
7325;DHT22;3703;48.016;7.802;2022-10-10T09:17:34;21.10;99.90
7325;DHT22;3703;48.016;7.802;2022-10-10T09:20:36;21.30;99.90
7325;DHT22;3703;48.016;7.802;2022-10-10T09:23:32;21.40;99.90
7325;DHT22;3703;48.016;7.802;2022-10-10T09:26:25;21.90;99.90
7325;DHT22;3703;48.016;7.802;2022-10-10T09:29:24;22.30;99.90
7325;DHT22;3703;48.016;7.802;2022-10-10T09:32:17;22.00;99.90
7325;DHT22;3703;48.016;7.802;2022-10-10T09:35:14;21.70;99.90
7325;DHT22;3703;48.016;7.802;2022-10-10T09:38:21;21.60;99.90
7325;DHT22;3703;48.016;7.802;2022-10-10T09:41:18;21.90;99.90
7325;DHT22;3703;48.016;7.802;2022-10-10T09:44:10;22.10;99.90
7325;DHT22;3703;48.016;7.802;2022-10-10T09:46:59;22.20;99.90
7325;DHT22;3703;48.016;7.802;2022-10-10T09:49:46;22.20;99.90
7325;DHT22;3703;48.016;7.802;2022-10-10T09:52:34;21.90;99.90
7325;DHT22;3703;48.016;7.802;2022-10-10T09:55:24;21.80;99.90
7325;DHT22;3703;48.016;7.802;2022-10-10T09:58:19;22.00;99.90
7325;DHT22;3703;48.016;7.802;2022-10-10T10:01:14;22.10;99.90
7325;DHT22;3703;48.016;7.802;2022-10-10T10:04:09;22.10;99.90
7325;DHT22;3703;48.016;7.802;2022-10-10T10:07:05;22.00;99.90
7325;DHT22;3703;48.016;7.802;2022-10-10T10:09:59;22.10;99.90
7325;DHT22;3703;48.016;7.802;2022-10-10T10:12:48;22.40;99.90
7325;DHT22;3703;48.016;7.802;2022-10-10T10:15:37;22.60;99.90
7325;DHT22;3703;48.016;7.802;2022-10-10T10:18:27;22.90;99.90
7325;DHT22;3703;48.016;7.802;2022-10-10T10:21:17;22.40;99.90
7325;DHT22;3703;48.016;7.802;2022-10-10T10:24:20;22.50;99.90
7325;DHT22;3703;48.016;7.802;2022-10-10T10:27:15;22.40;99.90
7325;DHT22;3703;48.016;7.802;2022-10-10T10:30:05;22.40;99.90
7325;DHT22;3703;48.016;7.802;2022-10-10T10:33:04;22.70;99.90
7325;DHT22;3703;48.016;7.802;2022-10-10T10:36:01;22.90;99.90
7325;DHT22;3703;48.016;7.802;2022-10-10T10:39:05;22.80;99.90
7325;DHT22;3703;48.016;7.802;2022-10-10T10:42:04;22.70;99.90
7325;DHT22;3703;48.016;7.802;2022-10-10T10:45:02;22.60;99.90
7325;DHT22;3703;48.016;7.802;2022-10-10T10:48:07;22.50;99.90
7325;DHT22;3703;48.016;7.802;2022-10-10T10:51:13;22.90;99.90
7325;DHT22;3703;48.016;7.802;2022-10-10T10:54:21;23.00;99.90
7325;DHT22;3703;48.016;7.802;2022-10-10T10:57:20;23.10;99.90
7325;DHT22;3703;48.016;7.802;2022-10-10T11:00:13;23.30;99.90
7325;DHT22;3703;48.016;7.802;2022-10-10T11:03:17;23.30;99.90
7325;DHT22;3703;48.016;7.802;2022-10-10T11:06:21;23.30;99.90
7325;DHT22;3703;48.016;7.802;2022-10-10T11:09:19;23.40;99.90
7325;DHT22;3703;48.016;7.802;2022-10-10T11:12:17;23.50;99.90
7325;DHT22;3703;48.016;7.802;2022-10-10T11:15:15;24.40;99.90
7325;DHT22;3703;48.016;7.802;2022-10-10T11:18:13;24.50;99.90
7325;DHT22;3703;48.016;7.802;2022-10-10T11:21:07;24.20;99.90
7325;DHT22;3703;48.016;7.802;2022-10-10T11:24:01;23.90;99.90
7325;DHT22;3703;48.016;7.802;2022-10-10T11:26:56;24.00;99.90
7325;DHT22;3703;48.016;7.802;2022-10-10T11:29:54;24.10;99.90
7325;DHT22;3703;48.016;7.802;2022-10-10T11:32:52;24.10;99.90
7325;DHT22;3703;48.016;7.802;2022-10-10T11:35:49;24.60;99.90
7325;DHT22;3703;48.016;7.802;2022-10-10T11:38:46;24.50;99.90
7325;DHT22;3703;48.016;7.802;2022-10-10T11:41:38;23.80;99.90
7325;DHT22;3703;48.016;7.802;2022-10-10T11:44:31;24.10;99.90
7325;DHT22;3703;48.016;7.802;2022-10-10T11:47:23;24.10;99.90
7325;DHT22;3703;48.016;7.802;2022-10-10T11:50:16;24.50;99.90
7325;DHT22;3703;48.016;7.802;2022-10-10T11:53:14;24.80;99.90
7325;DHT22;3703;48.016;7.802;2022-10-10T11:56:14;25.00;99.90
7325;DHT22;3703;48.016;7.802;2022-10-10T11:59:10;24.60;99.90
7325;DHT22;3703;48.016;7.802;2022-10-10T12:02:09;24.20;99.90
7325;DHT22;3703;48.016;7.802;2022-10-10T12:05:03;24.50;99.90
7325;DHT22;3703;48.016;7.802;2022-10-10T12:08:06;25.30;99.90
7325;DHT22;3703;48.016;7.802;2022-10-10T12:11:06;25.30;99.90
7325;DHT22;3703;48.016;7.802;2022-10-10T12:13:59;24.70;99.90
7325;DHT22;3703;48.016;7.802;2022-10-10T12:16:47;24.60;99.90
7325;DHT22;3703;48.016;7.802;2022-10-10T12:19:35;24.50;99.90
7325;DHT22;3703;48.016;7.802;2022-10-10T12:22:25;24.80;99.90
7325;DHT22;3703;48.016;7.802;2022-10-10T12:25:24;24.70;99.90
7325;DHT22;3703;48.016;7.802;2022-10-10T12:28:28;24.90;99.90
7325;DHT22;3703;48.016;7.802;2022-10-10T12:31:32;24.90;99.90
7325;DHT22;3703;48.016;7.802;2022-10-10T12:34:42;24.90;99.90
7325;DHT22;3703;48.016;7.802;2022-10-10T12:38:09;24.70;99.90
7325;DHT22;3703;48.016;7.802;2022-10-10T12:41:12;24.60;99.90
7325;DHT22;3703;48.016;7.802;2022-10-10T12:44:21;24.80;99.90
7325;DHT22;3703;48.016;7.802;2022-10-10T12:47:28;24.80;99.90
7325;DHT22;3703;48.016;7.802;2022-10-10T12:50:22;25.30;99.90
7325;DHT22;3703;48.016;7.802;2022-10-10T12:53:16;25.60;99.90
7325;DHT22;3703;48.016;7.802;2022-10-10T12:56:06;25.30;99.90
7325;DHT22;3703;48.016;7.802;2022-10-10T12:58:56;25.60;99.90
7325;DHT22;3703;48.016;7.802;2022-10-10T13:01:49;25.90;99.90
7325;DHT22;3703;48.016;7.802;2022-10-10T13:04:41;26.50;99.90
7325;DHT22;3703;48.016;7.802;2022-10-10T13:07:29;27.10;99.90
7325;DHT22;3703;48.016;7.802;2022-10-10T13:10:21;26.00;99.90
7325;DHT22;3703;48.016;7.802;2022-10-10T13:13:18;25.90;99.90
7325;DHT22;3703;48.016;7.802;2022-10-10T13:16:10;26.00;99.90
7325;DHT22;3703;48.016;7.802;2022-10-10T13:19:00;26.10;99.90
7325;DHT22;3703;48.016;7.802;2022-10-10T13:21:50;26.30;99.90
7325;DHT22;3703;48.016;7.802;2022-10-10T13:24:41;25.40;99.90
7325;DHT22;3703;48.016;7.802;2022-10-10T13:27:31;25.50;99.90
7325;DHT22;3703;48.016;7.802;2022-10-10T13:30:23;25.10;99.90
7325;DHT22;3703;48.016;7.802;2022-10-10T13:33:15;25.50;99.90
7325;DHT22;3703;48.016;7.802;2022-10-10T13:36:06;25.10;99.90
7325;DHT22;3703;48.016;7.802;2022-10-10T13:38:55;25.10;99.90
7325;DHT22;3703;48.016;7.802;2022-10-10T13:41:44;24.60;99.90
7325;DHT22;3703;48.016;7.802;2022-10-10T13:44:46;24.50;99.90
7325;DHT22;3703;48.016;7.802;2022-10-10T13:47:57;24.30;99.90
7325;DHT22;3703;48.016;7.802;2022-10-10T13:51:03;24.40;99.90
7325;DHT22;3703;48.016;7.802;2022-10-10T13:53:53;24.80;99.90
7325;DHT22;3703;48.016;7.802;2022-10-10T13:56:42;25.20;99.90
7325;DHT22;3703;48.016;7.802;2022-10-10T13:59:30;25.30;99.90
7325;DHT22;3703;48.016;7.802;2022-10-10T14:02:18;25.50;99.90
7325;DHT22;3703;48.016;7.802;2022-10-10T14:05:15;25.50;99.90
7325;DHT22;3703;48.016;7.802;2022-10-10T14:08:04;24.90;99.90
7325;DHT22;3703;48.016;7.802;2022-10-10T14:10:58;24.70;99.90
7325;DHT22;3703;48.016;7.802;2022-10-10T14:13:50;24.70;99.90
7325;DHT22;3703;48.016;7.802;2022-10-10T14:16:39;24.70;99.90
7325;DHT22;3703;48.016;7.802;2022-10-10T14:19:28;24.40;99.90
7325;DHT22;3703;48.016;7.802;2022-10-10T14:22:18;24.20;99.90
7325;DHT22;3703;48.016;7.802;2022-10-10T14:25:07;24.10;99.90
7325;DHT22;3703;48.016;7.802;2022-10-10T14:27:56;23.90;99.90
7325;DHT22;3703;48.016;7.802;2022-10-10T14:30:44;23.70;99.90
7325;DHT22;3703;48.016;7.802;2022-10-10T14:33:33;23.70;99.90
7325;DHT22;3703;48.016;7.802;2022-10-10T14:36:20;23.40;99.90
7325;DHT22;3703;48.016;7.802;2022-10-10T14:39:12;23.50;99.90
7325;DHT22;3703;48.016;7.802;2022-10-10T14:42:01;23.70;99.90
7325;DHT22;3703;48.016;7.802;2022-10-10T14:44:49;23.90;99.90
7325;DHT22;3703;48.016;7.802;2022-10-10T14:47:36;23.90;99.90
7325;DHT22;3703;48.016;7.802;2022-10-10T14:50:26;24.10;99.90
7325;DHT22;3703;48.016;7.802;2022-10-10T14:53:18;23.90;99.90
7325;DHT22;3703;48.016;7.802;2022-10-10T14:56:09;24.00;99.90
7325;DHT22;3703;48.016;7.802;2022-10-10T14:58:58;24.10;99.90
7325;DHT22;3703;48.016;7.802;2022-10-10T15:01:47;24.00;99.90
7325;DHT22;3703;48.016;7.802;2022-10-10T15:04:35;23.90;99.90
7325;DHT22;3703;48.016;7.802;2022-10-10T15:07:22;23.70;99.90
7325;DHT22;3703;48.016;7.802;2022-10-10T15:10:12;23.60;99.90
7325;DHT22;3703;48.016;7.802;2022-10-10T15:13:01;23.40;99.90
7325;DHT22;3703;48.016;7.802;2022-10-10T15:15:50;23.40;99.90
7325;DHT22;3703;48.016;7.802;2022-10-10T15:18:37;23.30;99.90
7325;DHT22;3703;48.016;7.802;2022-10-10T15:21:25;23.10;99.90
7325;DHT22;3703;48.016;7.802;2022-10-10T15:24:13;23.20;99.90
7325;DHT22;3703;48.016;7.802;2022-10-10T15:27:01;23.10;99.90
7325;DHT22;3703;48.016;7.802;2022-10-10T15:29:50;23.10;99.90
7325;DHT22;3703;48.016;7.802;2022-10-10T15:32:38;23.30;99.90
7325;DHT22;3703;48.016;7.802;2022-10-10T15:35:26;23.30;99.90
7325;DHT22;3703;48.016;7.802;2022-10-10T15:38:14;23.20;99.90
7325;DHT22;3703;48.016;7.802;2022-10-10T15:41:04;23.00;99.90
7325;DHT22;3703;48.016;7.802;2022-10-10T15:43:53;22.80;99.90
7325;DHT22;3703;48.016;7.802;2022-10-10T15:46:43;22.90;99.90
7325;DHT22;3703;48.016;7.802;2022-10-10T15:49:31;22.80;99.90
7325;DHT22;3703;48.016;7.802;2022-10-10T15:52:19;22.80;99.90
7325;DHT22;3703;48.016;7.802;2022-10-10T15:55:08;22.70;99.90
7325;DHT22;3703;48.016;7.802;2022-10-10T15:57:56;22.60;99.90
7325;DHT22;3703;48.016;7.802;2022-10-10T16:00:44;22.50;99.90
7325;DHT22;3703;48.016;7.802;2022-10-10T16:03:34;22.40;99.90
7325;DHT22;3703;48.016;7.802;2022-10-10T16:06:24;22.40;99.90
7325;DHT22;3703;48.016;7.802;2022-10-10T16:09:11;22.40;99.90
7325;DHT22;3703;48.016;7.802;2022-10-10T16:11:59;22.40;99.90
7325;DHT22;3703;48.016;7.802;2022-10-10T16:14:47;22.30;99.90
7325;DHT22;3703;48.016;7.802;2022-10-10T16:17:35;22.20;99.90
7325;DHT22;3703;48.016;7.802;2022-10-10T16:20:24;22.20;99.90
7325;DHT22;3703;48.016;7.802;2022-10-10T16:23:12;22.10;99.90
7325;DHT22;3703;48.016;7.802;2022-10-10T16:26:00;22.00;99.90
7325;DHT22;3703;48.016;7.802;2022-10-10T16:28:48;21.80;99.90
7325;DHT22;3703;48.016;7.802;2022-10-10T16:31:36;21.80;99.90
7325;DHT22;3703;48.016;7.802;2022-10-10T16:34:25;21.80;99.90
7325;DHT22;3703;48.016;7.802;2022-10-10T16:37:14;21.70;99.90
7325;DHT22;3703;48.016;7.802;2022-10-10T16:40:01;21.70;99.90
7325;DHT22;3703;48.016;7.802;2022-10-10T16:42:49;21.60;99.90
7325;DHT22;3703;48.016;7.802;2022-10-10T16:45:40;21.60;99.90
7325;DHT22;3703;48.016;7.802;2022-10-10T16:48:29;21.60;99.90
7325;DHT22;3703;48.016;7.802;2022-10-10T16:51:19;21.60;99.90
7325;DHT22;3703;48.016;7.802;2022-10-10T16:54:10;21.60;99.90
7325;DHT22;3703;48.016;7.802;2022-10-10T16:56:58;21.60;99.90
7325;DHT22;3703;48.016;7.802;2022-10-10T16:59:45;21.50;99.90
7325;DHT22;3703;48.016;7.802;2022-10-10T17:02:33;21.40;99.90
7325;DHT22;3703;48.016;7.802;2022-10-10T17:05:23;21.30;99.90
7325;DHT22;3703;48.016;7.802;2022-10-10T17:08:11;21.00;99.90
7325;DHT22;3703;48.016;7.802;2022-10-10T17:11:01;21.00;99.90
7325;DHT22;3703;48.016;7.802;2022-10-10T17:13:49;20.90;99.90
7325;DHT22;3703;48.016;7.802;2022-10-10T17:16:37;20.90;99.90
7325;DHT22;3703;48.016;7.802;2022-10-10T17:19:25;20.90;99.90
7325;DHT22;3703;48.016;7.802;2022-10-10T17:22:13;20.90;99.90
7325;DHT22;3703;48.016;7.802;2022-10-10T17:25:00;20.90;99.90
7325;DHT22;3703;48.016;7.802;2022-10-10T17:27:49;20.90;99.90
7325;DHT22;3703;48.016;7.802;2022-10-10T17:30:41;20.90;99.90
7325;DHT22;3703;48.016;7.802;2022-10-10T17:33:29;20.90;99.90
7325;DHT22;3703;48.016;7.802;2022-10-10T17:36:18;20.90;99.90
7325;DHT22;3703;48.016;7.802;2022-10-10T17:39:07;20.80;99.90
7325;DHT22;3703;48.016;7.802;2022-10-10T17:41:55;20.60;99.90
7325;DHT22;3703;48.016;7.802;2022-10-10T17:44:44;20.50;99.90
7325;DHT22;3703;48.016;7.802;2022-10-10T17:47:32;20.50;99.90
7325;DHT22;3703;48.016;7.802;2022-10-10T17:50:20;20.50;99.90
7325;DHT22;3703;48.016;7.802;2022-10-10T17:53:07;20.40;99.90
7325;DHT22;3703;48.016;7.802;2022-10-10T17:55:55;20.30;99.90
7325;DHT22;3703;48.016;7.802;2022-10-10T17:58:43;20.20;99.90
7325;DHT22;3703;48.016;7.802;2022-10-10T18:01:34;20.30;99.90
7325;DHT22;3703;48.016;7.802;2022-10-10T18:04:21;20.20;99.90
7325;DHT22;3703;48.016;7.802;2022-10-10T18:07:10;19.80;99.90
7325;DHT22;3703;48.016;7.802;2022-10-10T18:09:58;19.70;99.90
7325;DHT22;3703;48.016;7.802;2022-10-10T18:12:45;19.70;99.90
7325;DHT22;3703;48.016;7.802;2022-10-10T18:15:33;19.70;99.90
7325;DHT22;3703;48.016;7.802;2022-10-10T18:18:23;19.70;99.90
7325;DHT22;3703;48.016;7.802;2022-10-10T18:21:12;19.70;99.90
7325;DHT22;3703;48.016;7.802;2022-10-10T18:24:00;19.60;99.90
7325;DHT22;3703;48.016;7.802;2022-10-10T18:26:48;19.50;99.90
7325;DHT22;3703;48.016;7.802;2022-10-10T18:29:35;19.50;99.90
7325;DHT22;3703;48.016;7.802;2022-10-10T18:32:24;19.50;99.90
7325;DHT22;3703;48.016;7.802;2022-10-10T18:35:14;19.30;99.90
7325;DHT22;3703;48.016;7.802;2022-10-10T18:38:01;19.20;99.90